sensor_id;sensor_type;location;lat;lon;timestamp;P1;durP1;ratioP1;P2;durP2;ratioP2
50367;SDS011;36281;34.132;-118.018;2023-02-12T00:01:50;9.20;;;2.60;;
50367;SDS011;36281;34.132;-118.018;2023-02-12T00:04:19;6.60;;;2.53;;
50367;SDS011;36281;34.132;-118.018;2023-02-12T00:06:50;6.10;;;2.53;;
50367;SDS011;36281;34.132;-118.018;2023-02-12T00:09:19;7.28;;;2.58;;
50367;SDS011;36281;34.132;-118.018;2023-02-12T00:11:48;5.05;;;2.42;;
50367;SDS011;36281;34.132;-118.018;2023-02-12T00:14:17;6.75;;;2.80;;
50367;SDS011;36281;34.132;-118.018;2023-02-12T00:16:45;4.53;;;2.72;;
50367;SDS011;36281;34.132;-118.018;2023-02-12T00:19:15;6.68;;;2.75;;
50367;SDS011;36281;34.132;-118.018;2023-02-12T00:21:44;7.75;;;2.90;;
50367;SDS011;36281;34.132;-118.018;2023-02-12T00:24:14;7.72;;;2.70;;
50367;SDS011;36281;34.132;-118.018;2023-02-12T00:26:43;6.70;;;2.50;;
50367;SDS011;36281;34.132;-118.018;2023-02-12T00:29:14;4.90;;;2.38;;
50367;SDS011;36281;34.132;-118.018;2023-02-12T00:31:44;8.55;;;2.90;;
50367;SDS011;36281;34.132;-118.018;2023-02-12T00:34:14;7.00;;;2.63;;
50367;SDS011;36281;34.132;-118.018;2023-02-12T00:36:43;7.05;;;2.50;;
50367;SDS011;36281;34.132;-118.018;2023-02-12T00:39:12;5.85;;;2.53;;
50367;SDS011;36281;34.132;-118.018;2023-02-12T00:41:42;8.45;;;2.60;;
50367;SDS011;36281;34.132;-118.018;2023-02-12T00:44:11;4.38;;;2.67;;
50367;SDS011;36281;34.132;-118.018;2023-02-12T00:46:40;5.60;;;2.28;;
50367;SDS011;36281;34.132;-118.018;2023-02-12T00:49:09;4.60;;;2.40;;
50367;SDS011;36281;34.132;-118.018;2023-02-12T00:51:38;6.25;;;2.30;;
50367;SDS011;36281;34.132;-118.018;2023-02-12T00:54:08;6.40;;;2.67;;
50367;SDS011;36281;34.132;-118.018;2023-02-12T00:56:38;11.32;;;3.92;;
50367;SDS011;36281;34.132;-118.018;2023-02-12T00:59:07;6.93;;;2.92;;
50367;SDS011;36281;34.132;-118.018;2023-02-12T01:01:36;7.97;;;2.75;;
50367;SDS011;36281;34.132;-118.018;2023-02-12T01:04:05;6.50;;;2.55;;
50367;SDS011;36281;34.132;-118.018;2023-02-12T01:06:35;7.80;;;2.40;;
50367;SDS011;36281;34.132;-118.018;2023-02-12T01:09:04;5.93;;;2.63;;
50367;SDS011;36281;34.132;-118.018;2023-02-12T01:11:33;4.22;;;2.53;;
50367;SDS011;36281;34.132;-118.018;2023-02-12T01:14:03;7.10;;;2.55;;
50367;SDS011;36281;34.132;-118.018;2023-02-12T01:16:33;5.25;;;2.20;;
50367;SDS011;36281;34.132;-118.018;2023-02-12T01:19:03;4.80;;;2.22;;
50367;SDS011;36281;34.132;-118.018;2023-02-12T01:21:33;3.28;;;1.90;;
50367;SDS011;36281;34.132;-118.018;2023-02-12T01:24:02;4.07;;;2.00;;
50367;SDS011;36281;34.132;-118.018;2023-02-12T01:26:32;6.30;;;2.67;;
50367;SDS011;36281;34.132;-118.018;2023-02-12T01:29:01;6.32;;;2.30;;
50367;SDS011;36281;34.132;-118.018;2023-02-12T01:31:35;5.15;;;2.20;;
50367;SDS011;36281;34.132;-118.018;2023-02-12T01:34:06;5.68;;;2.20;;
50367;SDS011;36281;34.132;-118.018;2023-02-12T01:36:37;4.68;;;2.13;;
50367;SDS011;36281;34.132;-118.018;2023-02-12T01:39:06;4.43;;;2.40;;
50367;SDS011;36281;34.132;-118.018;2023-02-12T01:41:39;4.90;;;1.98;;
50367;SDS011;36281;34.132;-118.018;2023-02-12T01:44:15;4.93;;;2.17;;
50367;SDS011;36281;34.132;-118.018;2023-02-12T01:46:45;4.72;;;2.22;;
50367;SDS011;36281;34.132;-118.018;2023-02-12T01:49:17;4.97;;;2.33;;
50367;SDS011;36281;34.132;-118.018;2023-02-12T01:51:52;4.05;;;2.03;;
50367;SDS011;36281;34.132;-118.018;2023-02-12T01:54:26;4.85;;;2.35;;
50367;SDS011;36281;34.132;-118.018;2023-02-12T01:56:57;3.95;;;2.25;;
50367;SDS011;36281;34.132;-118.018;2023-02-12T01:59:29;4.55;;;2.40;;
50367;SDS011;36281;34.132;-118.018;2023-02-12T02:01:58;6.75;;;2.85;;
50367;SDS011;36281;34.132;-118.018;2023-02-12T02:04:28;7.78;;;3.05;;
50367;SDS011;36281;34.132;-118.018;2023-02-12T02:07:00;4.88;;;2.60;;
50367;SDS011;36281;34.132;-118.018;2023-02-12T02:09:32;5.55;;;2.45;;
50367;SDS011;36281;34.132;-118.018;2023-02-12T02:12:04;7.13;;;2.70;;
50367;SDS011;36281;34.132;-118.018;2023-02-12T02:14:53;4.72;;;2.60;;
50367;SDS011;36281;34.132;-118.018;2023-02-12T02:20:27;4.72;;;2.85;;
50367;SDS011;36281;34.132;-118.018;2023-02-12T02:23:28;9.18;;;2.40;;
50367;SDS011;36281;34.132;-118.018;2023-02-12T02:26:14;6.45;;;2.35;;
50367;SDS011;36281;34.132;-118.018;2023-02-12T02:29:08;5.20;;;2.55;;
50367;SDS011;36281;34.132;-118.018;2023-02-12T02:31:50;7.80;;;2.75;;
50367;SDS011;36281;34.132;-118.018;2023-02-12T02:36:58;5.18;;;2.03;;
50367;SDS011;36281;34.132;-118.018;2023-02-12T02:39:34;5.53;;;2.55;;
50367;SDS011;36281;34.132;-118.018;2023-02-12T02:42:09;8.23;;;2.67;;
50367;SDS011;36281;34.132;-118.018;2023-02-12T02:44:45;7.03;;;2.40;;
50367;SDS011;36281;34.132;-118.018;2023-02-12T02:47:23;5.80;;;2.40;;
50367;SDS011;36281;34.132;-118.018;2023-02-12T02:49:57;10.57;;;5.10;;
50367;SDS011;36281;34.132;-118.018;2023-02-12T02:52:30;10.07;;;4.70;;
50367;SDS011;36281;34.132;-118.018;2023-02-12T02:55:04;7.45;;;3.88;;
50367;SDS011;36281;34.132;-118.018;2023-02-12T02:57:35;7.70;;;3.83;;
50367;SDS011;36281;34.132;-118.018;2023-02-12T03:00:10;7.63;;;3.42;;
50367;SDS011;36281;34.132;-118.018;2023-02-12T03:02:45;5.50;;;3.58;;
50367;SDS011;36281;34.132;-118.018;2023-02-12T03:05:19;9.40;;;4.20;;
50367;SDS011;36281;34.132;-118.018;2023-02-12T03:07:53;6.47;;;3.28;;
50367;SDS011;36281;34.132;-118.018;2023-02-12T03:10:29;6.60;;;3.08;;
50367;SDS011;36281;34.132;-118.018;2023-02-12T03:13:02;5.93;;;2.65;;
50367;SDS011;36281;34.132;-118.018;2023-02-12T03:15:37;6.25;;;3.08;;
50367;SDS011;36281;34.132;-118.018;2023-02-12T03:18:13;8.43;;;3.20;;
50367;SDS011;36281;34.132;-118.018;2023-02-12T03:20:47;9.00;;;3.08;;
50367;SDS011;36281;34.132;-118.018;2023-02-12T03:23:21;8.95;;;3.92;;
50367;SDS011;36281;34.132;-118.018;2023-02-12T03:25:54;9.10;;;3.13;;
50367;SDS011;36281;34.132;-118.018;2023-02-12T03:28:29;9.50;;;2.80;;
50367;SDS011;36281;34.132;-118.018;2023-02-12T03:31:03;7.40;;;2.90;;
50367;SDS011;36281;34.132;-118.018;2023-02-12T03:33:40;7.63;;;3.22;;
50367;SDS011;36281;34.132;-118.018;2023-02-12T03:36:19;7.80;;;3.08;;
50367;SDS011;36281;34.132;-118.018;2023-02-12T03:38:55;8.18;;;3.30;;
50367;SDS011;36281;34.132;-118.018;2023-02-12T03:41:35;12.73;;;4.70;;
50367;SDS011;36281;34.132;-118.018;2023-02-12T03:44:10;8.35;;;3.92;;
50367;SDS011;36281;34.132;-118.018;2023-02-12T03:46:51;7.07;;;3.47;;
50367;SDS011;36281;34.132;-118.018;2023-02-12T03:49:28;9.85;;;3.67;;
50367;SDS011;36281;34.132;-118.018;2023-02-12T03:52:02;5.80;;;3.13;;
50367;SDS011;36281;34.132;-118.018;2023-02-12T03:54:32;9.57;;;3.40;;
50367;SDS011;36281;34.132;-118.018;2023-02-12T03:57:04;7.38;;;3.20;;
50367;SDS011;36281;34.132;-118.018;2023-02-12T03:59:37;9.35;;;3.83;;
50367;SDS011;36281;34.132;-118.018;2023-02-12T04:02:07;12.30;;;3.47;;
50367;SDS011;36281;34.132;-118.018;2023-02-12T04:04:39;11.48;;;3.72;;
50367;SDS011;36281;34.132;-118.018;2023-02-12T04:07:08;9.55;;;3.70;;
50367;SDS011;36281;34.132;-118.018;2023-02-12T04:09:37;7.53;;;3.55;;
50367;SDS011;36281;34.132;-118.018;2023-02-12T04:12:10;6.60;;;3.80;;
50367;SDS011;36281;34.132;-118.018;2023-02-12T04:14:49;9.77;;;3.40;;
50367;SDS011;36281;34.132;-118.018;2023-02-12T04:17:25;10.18;;;3.00;;
50367;SDS011;36281;34.132;-118.018;2023-02-12T04:20:04;7.20;;;3.25;;
50367;SDS011;36281;34.132;-118.018;2023-02-12T04:22:44;5.60;;;2.75;;
50367;SDS011;36281;34.132;-118.018;2023-02-12T04:25:25;5.70;;;2.80;;
50367;SDS011;36281;34.132;-118.018;2023-02-12T04:28:10;8.23;;;3.00;;
50367;SDS011;36281;34.132;-118.018;2023-02-12T04:30:50;6.10;;;3.30;;
50367;SDS011;36281;34.132;-118.018;2023-02-12T04:33:27;9.88;;;2.92;;
50367;SDS011;36281;34.132;-118.018;2023-02-12T04:36:05;9.00;;;3.10;;
50367;SDS011;36281;34.132;-118.018;2023-02-12T04:38:40;5.70;;;3.20;;
50367;SDS011;36281;34.132;-118.018;2023-02-12T04:41:14;9.27;;;3.20;;
50367;SDS011;36281;34.132;-118.018;2023-02-12T04:43:44;10.00;;;3.33;;
50367;SDS011;36281;34.132;-118.018;2023-02-12T04:46:13;5.03;;;2.90;;
50367;SDS011;36281;34.132;-118.018;2023-02-12T04:48:45;7.85;;;3.20;;
50367;SDS011;36281;34.132;-118.018;2023-02-12T04:51:20;8.52;;;3.35;;
50367;SDS011;36281;34.132;-118.018;2023-02-12T04:53:49;9.32;;;3.50;;
50367;SDS011;36281;34.132;-118.018;2023-02-12T04:56:18;5.38;;;3.20;;
50367;SDS011;36281;34.132;-118.018;2023-02-12T04:58:47;7.47;;;3.40;;
50367;SDS011;36281;34.132;-118.018;2023-02-12T05:01:17;7.88;;;3.35;;
50367;SDS011;36281;34.132;-118.018;2023-02-12T05:03:46;9.20;;;3.67;;
50367;SDS011;36281;34.132;-118.018;2023-02-12T05:06:15;9.73;;;3.78;;
50367;SDS011;36281;34.132;-118.018;2023-02-12T05:08:45;8.18;;;3.60;;
50367;SDS011;36281;34.132;-118.018;2023-02-12T05:11:14;8.93;;;3.90;;
50367;SDS011;36281;34.132;-118.018;2023-02-12T05:13:44;4.93;;;3.30;;
50367;SDS011;36281;34.132;-118.018;2023-02-12T05:16:16;10.23;;;4.03;;
50367;SDS011;36281;34.132;-118.018;2023-02-12T05:18:46;8.57;;;3.40;;
50367;SDS011;36281;34.132;-118.018;2023-02-12T05:21:15;7.78;;;3.97;;
50367;SDS011;36281;34.132;-118.018;2023-02-12T05:23:46;7.82;;;3.58;;
50367;SDS011;36281;34.132;-118.018;2023-02-12T05:26:16;11.40;;;4.05;;
50367;SDS011;36281;34.132;-118.018;2023-02-12T05:28:47;10.35;;;3.53;;
50367;SDS011;36281;34.132;-118.018;2023-02-12T05:31:17;8.20;;;3.85;;
50367;SDS011;36281;34.132;-118.018;2023-02-12T05:33:47;6.53;;;3.00;;
50367;SDS011;36281;34.132;-118.018;2023-02-12T05:36:18;6.82;;;3.60;;
50367;SDS011;36281;34.132;-118.018;2023-02-12T05:38:49;8.10;;;3.58;;
50367;SDS011;36281;34.132;-118.018;2023-02-12T05:41:21;9.27;;;3.42;;
50367;SDS011;36281;34.132;-118.018;2023-02-12T05:43:51;8.10;;;3.33;;
50367;SDS011;36281;34.132;-118.018;2023-02-12T05:46:21;7.78;;;3.10;;
50367;SDS011;36281;34.132;-118.018;2023-02-12T05:48:50;8.40;;;3.70;;
50367;SDS011;36281;34.132;-118.018;2023-02-12T05:51:20;7.45;;;3.33;;
50367;SDS011;36281;34.132;-118.018;2023-02-12T05:53:54;8.75;;;3.50;;
50367;SDS011;36281;34.132;-118.018;2023-02-12T05:56:26;7.63;;;3.63;;
50367;SDS011;36281;34.132;-118.018;2023-02-12T05:58:56;9.18;;;3.72;;
50367;SDS011;36281;34.132;-118.018;2023-02-12T06:01:29;6.97;;;3.58;;
50367;SDS011;36281;34.132;-118.018;2023-02-12T06:03:59;10.45;;;4.00;;
50367;SDS011;36281;34.132;-118.018;2023-02-12T06:06:30;8.00;;;3.35;;
50367;SDS011;36281;34.132;-118.018;2023-02-12T06:09:01;6.32;;;3.80;;
50367;SDS011;36281;34.132;-118.018;2023-02-12T06:11:30;5.97;;;3.47;;
50367;SDS011;36281;34.132;-118.018;2023-02-12T06:14:00;11.23;;;4.00;;
50367;SDS011;36281;34.132;-118.018;2023-02-12T06:16:30;7.25;;;3.53;;
50367;SDS011;36281;34.132;-118.018;2023-02-12T06:19:00;7.32;;;4.00;;
50367;SDS011;36281;34.132;-118.018;2023-02-12T06:21:30;7.32;;;4.25;;
50367;SDS011;36281;34.132;-118.018;2023-02-12T06:24:02;8.27;;;4.20;;
50367;SDS011;36281;34.132;-118.018;2023-02-12T06:26:31;7.75;;;4.78;;
50367;SDS011;36281;34.132;-118.018;2023-02-12T06:29:00;14.57;;;6.63;;
50367;SDS011;36281;34.132;-118.018;2023-02-12T06:31:29;9.85;;;6.60;;
50367;SDS011;36281;34.132;-118.018;2023-02-12T06:34:01;12.45;;;6.05;;
50367;SDS011;36281;34.132;-118.018;2023-02-12T06:36:32;12.88;;;6.45;;
50367;SDS011;36281;34.132;-118.018;2023-02-12T06:39:05;11.55;;;5.13;;
50367;SDS011;36281;34.132;-118.018;2023-02-12T06:41:35;10.77;;;4.90;;
50367;SDS011;36281;34.132;-118.018;2023-02-12T06:44:04;10.65;;;4.78;;
50367;SDS011;36281;34.132;-118.018;2023-02-12T06:46:33;10.50;;;4.82;;
50367;SDS011;36281;34.132;-118.018;2023-02-12T06:49:02;9.18;;;4.03;;
50367;SDS011;36281;34.132;-118.018;2023-02-12T06:51:31;9.82;;;3.72;;
50367;SDS011;36281;34.132;-118.018;2023-02-12T06:54:00;8.88;;;3.50;;
50367;SDS011;36281;34.132;-118.018;2023-02-12T06:56:31;7.18;;;3.45;;
50367;SDS011;36281;34.132;-118.018;2023-02-12T06:59:00;7.43;;;3.60;;
50367;SDS011;36281;34.132;-118.018;2023-02-12T07:01:29;9.20;;;3.20;;
50367;SDS011;36281;34.132;-118.018;2023-02-12T07:03:59;8.35;;;3.03;;
50367;SDS011;36281;34.132;-118.018;2023-02-12T07:06:29;11.25;;;3.75;;
50367;SDS011;36281;34.132;-118.018;2023-02-12T07:08:59;6.55;;;3.33;;
50367;SDS011;36281;34.132;-118.018;2023-02-12T07:11:29;6.78;;;2.92;;
50367;SDS011;36281;34.132;-118.018;2023-02-12T07:14:04;7.75;;;3.10;;
50367;SDS011;36281;34.132;-118.018;2023-02-12T07:16:33;7.68;;;3.50;;
50367;SDS011;36281;34.132;-118.018;2023-02-12T07:19:02;7.78;;;3.17;;
50367;SDS011;36281;34.132;-118.018;2023-02-12T07:21:31;4.97;;;3.03;;
50367;SDS011;36281;34.132;-118.018;2023-02-12T07:24:00;6.90;;;3.38;;
50367;SDS011;36281;34.132;-118.018;2023-02-12T07:26:31;6.82;;;3.22;;
50367;SDS011;36281;34.132;-118.018;2023-02-12T07:29:00;5.38;;;3.17;;
50367;SDS011;36281;34.132;-118.018;2023-02-12T07:31:29;6.32;;;3.20;;
50367;SDS011;36281;34.132;-118.018;2023-02-12T07:33:59;7.57;;;3.33;;
50367;SDS011;36281;34.132;-118.018;2023-02-12T07:36:29;9.20;;;3.15;;
50367;SDS011;36281;34.132;-118.018;2023-02-12T07:38:59;13.18;;;3.63;;
50367;SDS011;36281;34.132;-118.018;2023-02-12T07:41:28;5.93;;;3.00;;
50367;SDS011;36281;34.132;-118.018;2023-02-12T07:44:00;9.65;;;3.38;;
50367;SDS011;36281;34.132;-118.018;2023-02-12T07:46:33;6.63;;;2.95;;
50367;SDS011;36281;34.132;-118.018;2023-02-12T07:49:04;5.80;;;3.30;;
50367;SDS011;36281;34.132;-118.018;2023-02-12T07:51:35;5.88;;;3.00;;
50367;SDS011;36281;34.132;-118.018;2023-02-12T07:54:04;6.90;;;3.10;;
50367;SDS011;36281;34.132;-118.018;2023-02-12T07:56:35;7.30;;;3.55;;
50367;SDS011;36281;34.132;-118.018;2023-02-12T07:59:06;11.73;;;3.65;;
50367;SDS011;36281;34.132;-118.018;2023-02-12T08:01:38;9.23;;;3.70;;
50367;SDS011;36281;34.132;-118.018;2023-02-12T08:04:09;7.30;;;3.38;;
50367;SDS011;36281;34.132;-118.018;2023-02-12T08:06:41;8.73;;;3.17;;
50367;SDS011;36281;34.132;-118.018;2023-02-12T08:09:12;7.78;;;3.35;;
50367;SDS011;36281;34.132;-118.018;2023-02-12T08:11:44;7.57;;;3.60;;
50367;SDS011;36281;34.132;-118.018;2023-02-12T08:14:14;8.63;;;3.17;;
50367;SDS011;36281;34.132;-118.018;2023-02-12T08:16:44;5.57;;;3.50;;
50367;SDS011;36281;34.132;-118.018;2023-02-12T08:19:14;8.27;;;3.42;;
50367;SDS011;36281;34.132;-118.018;2023-02-12T08:21:50;9.50;;;3.00;;
50367;SDS011;36281;34.132;-118.018;2023-02-12T08:24:20;6.38;;;3.28;;
50367;SDS011;36281;34.132;-118.018;2023-02-12T08:26:51;9.10;;;3.10;;
50367;SDS011;36281;34.132;-118.018;2023-02-12T08:29:21;7.55;;;3.50;;
50367;SDS011;36281;34.132;-118.018;2023-02-12T08:31:54;10.32;;;3.35;;
50367;SDS011;36281;34.132;-118.018;2023-02-12T08:34:24;11.77;;;4.20;;
50367;SDS011;36281;34.132;-118.018;2023-02-12T08:36:54;7.45;;;3.15;;
50367;SDS011;36281;34.132;-118.018;2023-02-12T08:39:25;6.03;;;3.13;;
50367;SDS011;36281;34.132;-118.018;2023-02-12T08:41:57;8.93;;;2.95;;
50367;SDS011;36281;34.132;-118.018;2023-02-12T08:44:28;5.90;;;3.00;;
50367;SDS011;36281;34.132;-118.018;2023-02-12T08:46:57;7.75;;;3.15;;
50367;SDS011;36281;34.132;-118.018;2023-02-12T08:49:27;7.97;;;3.75;;
50367;SDS011;36281;34.132;-118.018;2023-02-12T08:51:57;8.50;;;3.10;;
50367;SDS011;36281;34.132;-118.018;2023-02-12T08:54:29;7.05;;;3.13;;
50367;SDS011;36281;34.132;-118.018;2023-02-12T08:57:01;7.03;;;2.72;;
50367;SDS011;36281;34.132;-118.018;2023-02-12T08:59:30;6.30;;;2.80;;
50367;SDS011;36281;34.132;-118.018;2023-02-12T09:02:00;5.40;;;2.63;;
50367;SDS011;36281;34.132;-118.018;2023-02-12T09:04:30;6.18;;;2.97;;
50367;SDS011;36281;34.132;-118.018;2023-02-12T09:07:00;7.45;;;3.00;;
50367;SDS011;36281;34.132;-118.018;2023-02-12T09:09:29;4.30;;;2.90;;
50367;SDS011;36281;34.132;-118.018;2023-02-12T09:11:58;7.32;;;2.92;;
50367;SDS011;36281;34.132;-118.018;2023-02-12T09:14:29;8.75;;;3.03;;
50367;SDS011;36281;34.132;-118.018;2023-02-12T09:16:58;7.43;;;2.90;;
50367;SDS011;36281;34.132;-118.018;2023-02-12T09:19:27;4.20;;;3.05;;
50367;SDS011;36281;34.132;-118.018;2023-02-12T09:21:56;8.68;;;3.40;;
50367;SDS011;36281;34.132;-118.018;2023-02-12T09:24:25;10.55;;;3.53;;
50367;SDS011;36281;34.132;-118.018;2023-02-12T09:26:54;9.02;;;2.90;;
50367;SDS011;36281;34.132;-118.018;2023-02-12T09:29:25;6.85;;;3.15;;
50367;SDS011;36281;34.132;-118.018;2023-02-12T09:31:54;7.72;;;3.55;;
50367;SDS011;36281;34.132;-118.018;2023-02-12T09:34:23;7.13;;;3.42;;
50367;SDS011;36281;34.132;-118.018;2023-02-12T09:36:52;6.82;;;3.35;;
50367;SDS011;36281;34.132;-118.018;2023-02-12T09:39:21;8.13;;;3.60;;
50367;SDS011;36281;34.132;-118.018;2023-02-12T09:44:47;6.85;;;3.00;;
50367;SDS011;36281;34.132;-118.018;2023-02-12T09:47:22;6.97;;;3.50;;
50367;SDS011;36281;34.132;-118.018;2023-02-12T09:50:08;7.38;;;3.50;;
50367;SDS011;36281;34.132;-118.018;2023-02-12T09:52:52;7.30;;;3.15;;
50367;SDS011;36281;34.132;-118.018;2023-02-12T09:55:24;8.27;;;4.05;;
50367;SDS011;36281;34.132;-118.018;2023-02-12T09:57:56;9.15;;;3.35;;
50367;SDS011;36281;34.132;-118.018;2023-02-12T10:00:30;7.35;;;3.33;;
50367;SDS011;36281;34.132;-118.018;2023-02-12T10:03:00;9.25;;;3.60;;
50367;SDS011;36281;34.132;-118.018;2023-02-12T10:05:33;8.88;;;3.40;;
50367;SDS011;36281;34.132;-118.018;2023-02-12T10:08:14;5.50;;;2.80;;
50367;SDS011;36281;34.132;-118.018;2023-02-12T10:11:12;7.28;;;3.42;;
50367;SDS011;36281;34.132;-118.018;2023-02-12T10:13:52;6.82;;;3.90;;
50367;SDS011;36281;34.132;-118.018;2023-02-12T10:16:35;8.88;;;3.50;;
50367;SDS011;36281;34.132;-118.018;2023-02-12T10:21:56;7.07;;;3.20;;
50367;SDS011;36281;34.132;-118.018;2023-02-12T10:24:37;7.95;;;3.42;;
50367;SDS011;36281;34.132;-118.018;2023-02-12T10:27:23;6.22;;;3.30;;
50367;SDS011;36281;34.132;-118.018;2023-02-12T10:30:02;7.70;;;3.33;;
50367;SDS011;36281;34.132;-118.018;2023-02-12T10:32:42;8.73;;;3.30;;
50367;SDS011;36281;34.132;-118.018;2023-02-12T10:35:13;7.07;;;3.30;;
50367;SDS011;36281;34.132;-118.018;2023-02-12T10:37:45;8.15;;;3.45;;
50367;SDS011;36281;34.132;-118.018;2023-02-12T10:40:21;7.22;;;3.63;;
50367;SDS011;36281;34.132;-118.018;2023-02-12T10:42:55;7.25;;;3.10;;
50367;SDS011;36281;34.132;-118.018;2023-02-12T10:45:25;8.95;;;3.63;;
50367;SDS011;36281;34.132;-118.018;2023-02-12T10:48:06;5.88;;;3.10;;
50367;SDS011;36281;34.132;-118.018;2023-02-12T10:50:40;3.97;;;3.13;;
50367;SDS011;36281;34.132;-118.018;2023-02-12T10:53:17;6.82;;;3.40;;
50367;SDS011;36281;34.132;-118.018;2023-02-12T10:55:49;6.78;;;3.58;;
50367;SDS011;36281;34.132;-118.018;2023-02-12T10:58:38;6.38;;;3.03;;
50367;SDS011;36281;34.132;-118.018;2023-02-12T11:01:13;7.50;;;3.55;;
50367;SDS011;36281;34.132;-118.018;2023-02-12T11:03:48;7.35;;;3.58;;
50367;SDS011;36281;34.132;-118.018;2023-02-12T11:06:18;7.30;;;3.30;;
50367;SDS011;36281;34.132;-118.018;2023-02-12T11:08:48;5.53;;;3.33;;
50367;SDS011;36281;34.132;-118.018;2023-02-12T11:11:19;7.60;;;3.30;;
50367;SDS011;36281;34.132;-118.018;2023-02-12T11:13:53;8.77;;;4.00;;
50367;SDS011;36281;34.132;-118.018;2023-02-12T11:16:28;6.28;;;3.30;;
50367;SDS011;36281;34.132;-118.018;2023-02-12T11:19:01;7.40;;;3.90;;
50367;SDS011;36281;34.132;-118.018;2023-02-12T11:21:32;9.27;;;3.78;;
50367;SDS011;36281;34.132;-118.018;2023-02-12T11:30:03;6.28;;;3.30;;
50367;SDS011;36281;34.132;-118.018;2023-02-12T11:32:44;7.82;;;3.22;;
50367;SDS011;36281;34.132;-118.018;2023-02-12T11:35:18;7.90;;;3.80;;
50367;SDS011;36281;34.132;-118.018;2023-02-12T11:38:00;7.90;;;3.70;;
50367;SDS011;36281;34.132;-118.018;2023-02-12T11:40:30;6.22;;;3.45;;
50367;SDS011;36281;34.132;-118.018;2023-02-12T11:43:01;7.45;;;3.30;;
50367;SDS011;36281;34.132;-118.018;2023-02-12T11:45:33;11.20;;;3.38;;
50367;SDS011;36281;34.132;-118.018;2023-02-12T11:48:08;8.45;;;3.33;;
50367;SDS011;36281;34.132;-118.018;2023-02-12T11:50:47;9.40;;;3.70;;
50367;SDS011;36281;34.132;-118.018;2023-02-12T11:53:19;7.05;;;3.08;;
50367;SDS011;36281;34.132;-118.018;2023-02-12T11:55:52;5.30;;;3.67;;
50367;SDS011;36281;34.132;-118.018;2023-02-12T11:58:24;4.32;;;3.03;;
50367;SDS011;36281;34.132;-118.018;2023-02-12T12:00:57;7.55;;;3.35;;
50367;SDS011;36281;34.132;-118.018;2023-02-12T12:03:33;10.05;;;3.30;;
50367;SDS011;36281;34.132;-118.018;2023-02-12T12:06:18;6.25;;;3.20;;
50367;SDS011;36281;34.132;-118.018;2023-02-12T12:08:53;5.63;;;3.35;;
50367;SDS011;36281;34.132;-118.018;2023-02-12T12:11:29;9.43;;;3.55;;
50367;SDS011;36281;34.132;-118.018;2023-02-12T12:14:07;7.95;;;3.13;;
50367;SDS011;36281;34.132;-118.018;2023-02-12T12:16:46;8.23;;;3.20;;
50367;SDS011;36281;34.132;-118.018;2023-02-12T12:19:42;5.40;;;3.42;;
50367;SDS011;36281;34.132;-118.018;2023-02-12T12:22:25;6.97;;;3.28;;
50367;SDS011;36281;34.132;-118.018;2023-02-12T12:25:19;9.20;;;3.10;;
50367;SDS011;36281;34.132;-118.018;2023-02-12T12:27:54;6.78;;;3.15;;
50367;SDS011;36281;34.132;-118.018;2023-02-12T12:33:36;5.97;;;3.33;;
50367;SDS011;36281;34.132;-118.018;2023-02-12T12:36:23;8.63;;;3.30;;
50367;SDS011;36281;34.132;-118.018;2023-02-12T12:39:14;7.05;;;3.45;;
50367;SDS011;36281;34.132;-118.018;2023-02-12T12:41:53;8.73;;;3.67;;
50367;SDS011;36281;34.132;-118.018;2023-02-12T12:44:44;6.10;;;3.60;;
50367;SDS011;36281;34.132;-118.018;2023-02-12T12:47:26;7.75;;;3.50;;
50367;SDS011;36281;34.132;-118.018;2023-02-12T12:50:06;7.32;;;3.30;;
50367;SDS011;36281;34.132;-118.018;2023-02-12T12:52:55;7.15;;;3.20;;
50367;SDS011;36281;34.132;-118.018;2023-02-12T12:55:45;4.35;;;2.83;;
50367;SDS011;36281;34.132;-118.018;2023-02-12T12:58:35;8.00;;;3.75;;
50367;SDS011;36281;34.132;-118.018;2023-02-12T13:01:19;8.85;;;3.50;;
50367;SDS011;36281;34.132;-118.018;2023-02-12T13:04:11;5.63;;;3.13;;
50367;SDS011;36281;34.132;-118.018;2023-02-12T13:07:01;5.95;;;3.17;;
50367;SDS011;36281;34.132;-118.018;2023-02-12T13:09:46;8.88;;;3.63;;
50367;SDS011;36281;34.132;-118.018;2023-02-12T13:15:25;6.15;;;3.25;;
50367;SDS011;36281;34.132;-118.018;2023-02-12T13:18:01;9.02;;;3.75;;
50367;SDS011;36281;34.132;-118.018;2023-02-12T13:20:42;8.02;;;3.45;;
50367;SDS011;36281;34.132;-118.018;2023-02-12T13:23:18;7.10;;;3.38;;
50367;SDS011;36281;34.132;-118.018;2023-02-12T13:25:54;9.57;;;3.55;;
50367;SDS011;36281;34.132;-118.018;2023-02-12T13:28:32;8.30;;;3.53;;
50367;SDS011;36281;34.132;-118.018;2023-02-12T13:31:06;6.90;;;3.67;;
50367;SDS011;36281;34.132;-118.018;2023-02-12T13:34:00;6.82;;;3.90;;
50367;SDS011;36281;34.132;-118.018;2023-02-12T13:36:32;5.15;;;3.22;;
50367;SDS011;36281;34.132;-118.018;2023-02-12T13:39:05;5.80;;;3.50;;
50367;SDS011;36281;34.132;-118.018;2023-02-12T13:41:47;6.00;;;3.65;;
50367;SDS011;36281;34.132;-118.018;2023-02-12T13:44:29;5.00;;;3.40;;
50367;SDS011;36281;34.132;-118.018;2023-02-12T13:47:06;8.82;;;4.15;;
50367;SDS011;36281;34.132;-118.018;2023-02-12T13:49:44;4.68;;;3.47;;
50367;SDS011;36281;34.132;-118.018;2023-02-12T13:52:22;8.20;;;3.80;;
50367;SDS011;36281;34.132;-118.018;2023-02-12T13:54:59;7.20;;;3.58;;
50367;SDS011;36281;34.132;-118.018;2023-02-12T13:57:42;8.35;;;3.33;;
50367;SDS011;36281;34.132;-118.018;2023-02-12T14:03:11;6.28;;;3.75;;
50367;SDS011;36281;34.132;-118.018;2023-02-12T14:05:41;5.63;;;3.25;;
50367;SDS011;36281;34.132;-118.018;2023-02-12T14:08:20;7.25;;;3.63;;
50367;SDS011;36281;34.132;-118.018;2023-02-12T14:11:02;7.28;;;3.50;;
50367;SDS011;36281;34.132;-118.018;2023-02-12T14:13:34;7.65;;;3.50;;
50367;SDS011;36281;34.132;-118.018;2023-02-12T14:16:19;6.57;;;3.40;;
50367;SDS011;36281;34.132;-118.018;2023-02-12T14:22:10;5.57;;;3.28;;
50367;SDS011;36281;34.132;-118.018;2023-02-12T14:27:29;7.53;;;3.70;;
50367;SDS011;36281;34.132;-118.018;2023-02-12T14:32:58;7.88;;;3.40;;
50367;SDS011;36281;34.132;-118.018;2023-02-12T14:36:15;7.10;;;3.83;;
50367;SDS011;36281;34.132;-118.018;2023-02-12T14:42:41;7.93;;;4.05;;
50367;SDS011;36281;34.132;-118.018;2023-02-12T14:45:32;7.65;;;3.90;;
50367;SDS011;36281;34.132;-118.018;2023-02-12T14:47:58;9.88;;;4.43;;
50367;SDS011;36281;34.132;-118.018;2023-02-12T14:50:35;11.20;;;4.47;;
50367;SDS011;36281;34.132;-118.018;2023-02-12T14:53:28;11.45;;;4.35;;
50367;SDS011;36281;34.132;-118.018;2023-02-12T14:55:59;8.82;;;4.93;;
50367;SDS011;36281;34.132;-118.018;2023-02-12T14:58:29;9.25;;;4.00;;
50367;SDS011;36281;34.132;-118.018;2023-02-12T15:00:59;7.97;;;3.90;;
50367;SDS011;36281;34.132;-118.018;2023-02-12T15:03:32;9.02;;;4.32;;
50367;SDS011;36281;34.132;-118.018;2023-02-12T15:08:44;8.57;;;4.25;;
50367;SDS011;36281;34.132;-118.018;2023-02-12T15:11:32;8.50;;;4.05;;
50367;SDS011;36281;34.132;-118.018;2023-02-12T15:14:06;8.77;;;3.97;;
50367;SDS011;36281;34.132;-118.018;2023-02-12T15:16:45;11.00;;;4.28;;
50367;SDS011;36281;34.132;-118.018;2023-02-12T15:19:32;12.70;;;4.88;;
50367;SDS011;36281;34.132;-118.018;2023-02-12T15:22:19;10.38;;;4.38;;
50367;SDS011;36281;34.132;-118.018;2023-02-12T15:24:52;7.82;;;4.30;;
50367;SDS011;36281;34.132;-118.018;2023-02-12T15:27:41;9.82;;;4.20;;
50367;SDS011;36281;34.132;-118.018;2023-02-12T15:30:13;6.60;;;4.03;;